sensor_id;sensor_type;location;lat;lon;timestamp;temperature;humidity
8860;DHT22;4466;50.948;4.832;2023-08-30T00:01:49;12.20;99.90
8860;DHT22;4466;50.948;4.832;2023-08-30T00:04:15;12.30;99.90
8860;DHT22;4466;50.948;4.832;2023-08-30T00:06:41;12.30;99.90
8860;DHT22;4466;50.948;4.832;2023-08-30T00:09:06;12.40;99.90
8860;DHT22;4466;50.948;4.832;2023-08-30T00:11:32;12.40;99.90
8860;DHT22;4466;50.948;4.832;2023-08-30T00:14:05;12.50;99.90
8860;DHT22;4466;50.948;4.832;2023-08-30T00:16:35;12.50;99.90
8860;DHT22;4466;50.948;4.832;2023-08-30T00:19:01;12.60;99.90
8860;DHT22;4466;50.948;4.832;2023-08-30T00:21:26;12.60;99.90
8860;DHT22;4466;50.948;4.832;2023-08-30T00:23:53;12.70;99.90
8860;DHT22;4466;50.948;4.832;2023-08-30T00:26:18;12.80;99.90
8860;DHT22;4466;50.948;4.832;2023-08-30T00:28:44;12.80;99.90
8860;DHT22;4466;50.948;4.832;2023-08-30T00:31:09;12.80;99.90
8860;DHT22;4466;50.948;4.832;2023-08-30T00:33:35;12.70;99.90
8860;DHT22;4466;50.948;4.832;2023-08-30T00:36:01;12.80;99.90
8860;DHT22;4466;50.948;4.832;2023-08-30T00:38:27;12.80;99.90
8860;DHT22;4466;50.948;4.832;2023-08-30T00:40:53;12.80;99.90
8860;DHT22;4466;50.948;4.832;2023-08-30T00:43:20;12.80;99.90
8860;DHT22;4466;50.948;4.832;2023-08-30T00:45:47;12.80;99.90
8860;DHT22;4466;50.948;4.832;2023-08-30T00:48:14;12.80;99.90
8860;DHT22;4466;50.948;4.832;2023-08-30T00:50:41;12.90;99.90
8860;DHT22;4466;50.948;4.832;2023-08-30T00:53:07;12.90;99.90
8860;DHT22;4466;50.948;4.832;2023-08-30T00:55:37;12.90;99.90
8860;DHT22;4466;50.948;4.832;2023-08-30T00:58:03;13.00;99.90
8860;DHT22;4466;50.948;4.832;2023-08-30T01:00:30;13.00;99.90
8860;DHT22;4466;50.948;4.832;2023-08-30T01:02:56;13.10;99.90
8860;DHT22;4466;50.948;4.832;2023-08-30T01:05:22;13.10;99.90
8860;DHT22;4466;50.948;4.832;2023-08-30T01:07:49;13.20;99.90
8860;DHT22;4466;50.948;4.832;2023-08-30T01:10:14;13.20;99.90
8860;DHT22;4466;50.948;4.832;2023-08-30T01:12:45;13.30;99.90
8860;DHT22;4466;50.948;4.832;2023-08-30T01:15:17;13.30;99.90
8860;DHT22;4466;50.948;4.832;2023-08-30T01:17:44;13.30;99.90
8860;DHT22;4466;50.948;4.832;2023-08-30T01:20:10;13.30;99.90
8860;DHT22;4466;50.948;4.832;2023-08-30T01:23:02;13.30;99.90
8860;DHT22;4466;50.948;4.832;2023-08-30T01:28:24;13.30;99.90
8860;DHT22;4466;50.948;4.832;2023-08-30T01:30:52;13.40;99.90
8860;DHT22;4466;50.948;4.832;2023-08-30T01:33:20;13.30;99.90
8860;DHT22;4466;50.948;4.832;2023-08-30T01:35:47;13.30;99.90
8860;DHT22;4466;50.948;4.832;2023-08-30T01:38:14;13.30;99.90
8860;DHT22;4466;50.948;4.832;2023-08-30T01:40:42;13.20;99.90
8860;DHT22;4466;50.948;4.832;2023-08-30T01:43:09;13.10;99.90
8860;DHT22;4466;50.948;4.832;2023-08-30T01:45:39;13.00;99.90
8860;DHT22;4466;50.948;4.832;2023-08-30T01:48:09;13.00;99.90
8860;DHT22;4466;50.948;4.832;2023-08-30T01:50:36;12.90;99.90
8860;DHT22;4466;50.948;4.832;2023-08-30T01:53:03;12.90;99.90
8860;DHT22;4466;50.948;4.832;2023-08-30T01:55:30;12.90;99.90
8860;DHT22;4466;50.948;4.832;2023-08-30T01:57:56;13.00;99.90
8860;DHT22;4466;50.948;4.832;2023-08-30T02:00:22;12.90;99.90
8860;DHT22;4466;50.948;4.832;2023-08-30T02:02:48;13.00;99.90
8860;DHT22;4466;50.948;4.832;2023-08-30T02:05:14;13.10;99.90
8860;DHT22;4466;50.948;4.832;2023-08-30T02:10:33;13.10;99.90
8860;DHT22;4466;50.948;4.832;2023-08-30T02:13:02;13.20;99.90
8860;DHT22;4466;50.948;4.832;2023-08-30T02:15:31;13.20;99.90
8860;DHT22;4466;50.948;4.832;2023-08-30T02:17:57;13.20;99.90
8860;DHT22;4466;50.948;4.832;2023-08-30T02:20:23;13.20;99.90
8860;DHT22;4466;50.948;4.832;2023-08-30T02:22:50;13.20;99.90
8860;DHT22;4466;50.948;4.832;2023-08-30T02:25:15;13.30;99.90
8860;DHT22;4466;50.948;4.832;2023-08-30T02:27:41;13.30;99.90
8860;DHT22;4466;50.948;4.832;2023-08-30T02:30:07;13.30;99.90
8860;DHT22;4466;50.948;4.832;2023-08-30T02:32:33;13.40;99.90
8860;DHT22;4466;50.948;4.832;2023-08-30T02:34:59;13.40;99.90
8860;DHT22;4466;50.948;4.832;2023-08-30T02:37:25;13.40;99.90
8860;DHT22;4466;50.948;4.832;2023-08-30T02:39:51;13.40;99.90
8860;DHT22;4466;50.948;4.832;2023-08-30T02:42:16;13.50;99.90
8860;DHT22;4466;50.948;4.832;2023-08-30T02:44:42;13.50;99.90
8860;DHT22;4466;50.948;4.832;2023-08-30T02:47:08;13.40;99.90
8860;DHT22;4466;50.948;4.832;2023-08-30T02:49:34;13.60;99.90
8860;DHT22;4466;50.948;4.832;2023-08-30T02:51:59;13.60;99.90
8860;DHT22;4466;50.948;4.832;2023-08-30T02:54:25;13.60;99.90
8860;DHT22;4466;50.948;4.832;2023-08-30T02:56:51;13.60;99.90
8860;DHT22;4466;50.948;4.832;2023-08-30T02:59:17;13.50;99.90
8860;DHT22;4466;50.948;4.832;2023-08-30T03:01:42;13.60;99.90
8860;DHT22;4466;50.948;4.832;2023-08-30T03:04:08;13.60;99.90
8860;DHT22;4466;50.948;4.832;2023-08-30T03:06:34;13.60;99.90
8860;DHT22;4466;50.948;4.832;2023-08-30T03:09:01;13.70;99.90
8860;DHT22;4466;50.948;4.832;2023-08-30T03:11:26;13.70;99.90
8860;DHT22;4466;50.948;4.832;2023-08-30T03:13:53;13.70;99.90
8860;DHT22;4466;50.948;4.832;2023-08-30T03:16:19;13.70;99.90
8860;DHT22;4466;50.948;4.832;2023-08-30T03:18:45;13.80;99.90
8860;DHT22;4466;50.948;4.832;2023-08-30T03:21:11;13.80;99.90
8860;DHT22;4466;50.948;4.832;2023-08-30T03:23:38;13.70;99.90
8860;DHT22;4466;50.948;4.832;2023-08-30T03:26:15;13.70;99.90
8860;DHT22;4466;50.948;4.832;2023-08-30T03:28:42;13.80;99.90
8860;DHT22;4466;50.948;4.832;2023-08-30T03:31:19;13.80;99.90
8860;DHT22;4466;50.948;4.832;2023-08-30T03:33:45;13.80;99.90
8860;DHT22;4466;50.948;4.832;2023-08-30T03:36:14;13.80;99.90
8860;DHT22;4466;50.948;4.832;2023-08-30T03:38:40;13.70;99.90
8860;DHT22;4466;50.948;4.832;2023-08-30T03:41:08;13.80;99.90
8860;DHT22;4466;50.948;4.832;2023-08-30T03:43:34;13.80;99.90
8860;DHT22;4466;50.948;4.832;2023-08-30T03:46:00;13.80;99.90
8860;DHT22;4466;50.948;4.832;2023-08-30T03:48:27;13.90;99.90
8860;DHT22;4466;50.948;4.832;2023-08-30T03:50:53;13.90;99.90
8860;DHT22;4466;50.948;4.832;2023-08-30T03:53:19;13.90;99.90
8860;DHT22;4466;50.948;4.832;2023-08-30T03:55:45;13.90;99.90
8860;DHT22;4466;50.948;4.832;2023-08-30T03:58:10;13.90;99.90
8860;DHT22;4466;50.948;4.832;2023-08-30T04:00:40;13.90;99.90
8860;DHT22;4466;50.948;4.832;2023-08-30T04:03:09;13.90;99.90
8860;DHT22;4466;50.948;4.832;2023-08-30T04:05:36;13.90;99.90
8860;DHT22;4466;50.948;4.832;2023-08-30T04:08:03;13.90;99.90
8860;DHT22;4466;50.948;4.832;2023-08-30T04:10:28;14.00;99.90
8860;DHT22;4466;50.948;4.832;2023-08-30T04:12:54;13.90;99.90
8860;DHT22;4466;50.948;4.832;2023-08-30T04:15:20;14.00;99.90
8860;DHT22;4466;50.948;4.832;2023-08-30T04:17:45;14.00;99.90
8860;DHT22;4466;50.948;4.832;2023-08-30T04:20:11;14.00;99.90
8860;DHT22;4466;50.948;4.832;2023-08-30T04:22:37;14.00;99.90
8860;DHT22;4466;50.948;4.832;2023-08-30T04:25:05;14.00;99.90
8860;DHT22;4466;50.948;4.832;2023-08-30T04:27:30;14.00;99.90
8860;DHT22;4466;50.948;4.832;2023-08-30T04:29:56;14.00;99.90
8860;DHT22;4466;50.948;4.832;2023-08-30T04:32:22;14.00;99.90
8860;DHT22;4466;50.948;4.832;2023-08-30T04:34:47;14.00;99.90
8860;DHT22;4466;50.948;4.832;2023-08-30T04:37:13;14.00;99.90
8860;DHT22;4466;50.948;4.832;2023-08-30T04:39:39;14.00;99.90
8860;DHT22;4466;50.948;4.832;2023-08-30T04:42:05;13.90;99.90
8860;DHT22;4466;50.948;4.832;2023-08-30T04:44:31;14.00;99.90
8860;DHT22;4466;50.948;4.832;2023-08-30T04:46:57;14.10;99.90
8860;DHT22;4466;50.948;4.832;2023-08-30T04:49:23;14.00;99.90
8860;DHT22;4466;50.948;4.832;2023-08-30T04:51:51;14.10;99.90
8860;DHT22;4466;50.948;4.832;2023-08-30T04:54:16;14.30;99.90
8860;DHT22;4466;50.948;4.832;2023-08-30T04:56:42;14.20;99.90
8860;DHT22;4466;50.948;4.832;2023-08-30T04:59:08;14.20;99.90
8860;DHT22;4466;50.948;4.832;2023-08-30T05:01:33;14.20;99.90
8860;DHT22;4466;50.948;4.832;2023-08-30T05:03:59;14.10;99.90
8860;DHT22;4466;50.948;4.832;2023-08-30T05:06:25;14.20;99.90
8860;DHT22;4466;50.948;4.832;2023-08-30T05:08:51;14.20;99.90
8860;DHT22;4466;50.948;4.832;2023-08-30T05:11:17;14.20;99.90
8860;DHT22;4466;50.948;4.832;2023-08-30T05:13:42;14.30;99.90
8860;DHT22;4466;50.948;4.832;2023-08-30T05:16:08;14.30;99.90
8860;DHT22;4466;50.948;4.832;2023-08-30T05:18:33;14.30;99.90
8860;DHT22;4466;50.948;4.832;2023-08-30T05:20:59;14.30;99.90
8860;DHT22;4466;50.948;4.832;2023-08-30T05:23:24;14.40;99.90
8860;DHT22;4466;50.948;4.832;2023-08-30T05:25:50;14.40;99.90
8860;DHT22;4466;50.948;4.832;2023-08-30T05:28:16;14.40;99.90
8860;DHT22;4466;50.948;4.832;2023-08-30T05:30:42;14.40;99.90
8860;DHT22;4466;50.948;4.832;2023-08-30T05:33:08;14.50;99.90
8860;DHT22;4466;50.948;4.832;2023-08-30T05:35:34;14.50;99.90
8860;DHT22;4466;50.948;4.832;2023-08-30T05:38:00;14.50;99.90
8860;DHT22;4466;50.948;4.832;2023-08-30T05:40:26;14.50;99.90
8860;DHT22;4466;50.948;4.832;2023-08-30T05:42:54;14.50;99.90
8860;DHT22;4466;50.948;4.832;2023-08-30T05:45:20;14.60;99.90
8860;DHT22;4466;50.948;4.832;2023-08-30T05:47:46;14.50;99.90
8860;DHT22;4466;50.948;4.832;2023-08-30T05:50:12;14.60;99.90
8860;DHT22;4466;50.948;4.832;2023-08-30T05:52:37;14.50;99.90
8860;DHT22;4466;50.948;4.832;2023-08-30T05:55:07;14.60;99.90
8860;DHT22;4466;50.948;4.832;2023-08-30T05:57:33;14.60;99.90
8860;DHT22;4466;50.948;4.832;2023-08-30T06:00:00;14.70;99.90
8860;DHT22;4466;50.948;4.832;2023-08-30T06:02:25;14.60;99.90
8860;DHT22;4466;50.948;4.832;2023-08-30T06:04:51;14.80;99.90
8860;DHT22;4466;50.948;4.832;2023-08-30T06:07:17;14.60;99.90
8860;DHT22;4466;50.948;4.832;2023-08-30T06:09:42;14.70;99.90
8860;DHT22;4466;50.948;4.832;2023-08-30T06:12:08;14.80;99.90
8860;DHT22;4466;50.948;4.832;2023-08-30T06:14:34;14.80;99.90
8860;DHT22;4466;50.948;4.832;2023-08-30T06:16:59;14.80;99.90
8860;DHT22;4466;50.948;4.832;2023-08-30T06:19:25;14.80;99.90
8860;DHT22;4466;50.948;4.832;2023-08-30T06:21:51;14.80;99.90
8860;DHT22;4466;50.948;4.832;2023-08-30T06:24:16;14.70;99.90
8860;DHT22;4466;50.948;4.832;2023-08-30T06:26:42;14.70;99.90
8860;DHT22;4466;50.948;4.832;2023-08-30T06:29:07;14.70;99.90
8860;DHT22;4466;50.948;4.832;2023-08-30T06:31:33;14.70;99.90
8860;DHT22;4466;50.948;4.832;2023-08-30T06:33:59;14.70;99.90
8860;DHT22;4466;50.948;4.832;2023-08-30T06:36:24;14.60;99.90
8860;DHT22;4466;50.948;4.832;2023-08-30T06:38:50;14.60;99.90
8860;DHT22;4466;50.948;4.832;2023-08-30T06:41:16;14.60;99.90
8860;DHT22;4466;50.948;4.832;2023-08-30T06:43:41;14.60;99.90
8860;DHT22;4466;50.948;4.832;2023-08-30T06:46:07;14.60;99.90
8860;DHT22;4466;50.948;4.832;2023-08-30T06:48:32;14.60;99.90
8860;DHT22;4466;50.948;4.832;2023-08-30T06:50:58;14.60;99.90
8860;DHT22;4466;50.948;4.832;2023-08-30T06:53:26;14.60;99.90
8860;DHT22;4466;50.948;4.832;2023-08-30T06:56:01;14.70;99.90
8860;DHT22;4466;50.948;4.832;2023-08-30T06:58:27;14.70;99.90
8860;DHT22;4466;50.948;4.832;2023-08-30T07:00:53;14.80;99.90
8860;DHT22;4466;50.948;4.832;2023-08-30T07:03:19;14.80;99.90
8860;DHT22;4466;50.948;4.832;2023-08-30T07:05:45;14.80;99.90
8860;DHT22;4466;50.948;4.832;2023-08-30T07:08:16;14.90;99.90
8860;DHT22;4466;50.948;4.832;2023-08-30T07:10:42;14.90;99.90
8860;DHT22;4466;50.948;4.832;2023-08-30T07:13:08;14.80;99.90
8860;DHT22;4466;50.948;4.832;2023-08-30T07:15:38;14.80;99.90
8860;DHT22;4466;50.948;4.832;2023-08-30T07:18:04;14.80;99.90
8860;DHT22;4466;50.948;4.832;2023-08-30T07:20:30;14.80;99.90
8860;DHT22;4466;50.948;4.832;2023-08-30T07:22:55;14.70;99.90
8860;DHT22;4466;50.948;4.832;2023-08-30T07:25:21;14.80;99.90
8860;DHT22;4466;50.948;4.832;2023-08-30T07:27:47;14.80;99.90
8860;DHT22;4466;50.948;4.832;2023-08-30T07:30:12;14.80;99.90
8860;DHT22;4466;50.948;4.832;2023-08-30T07:32:38;14.80;99.90
8860;DHT22;4466;50.948;4.832;2023-08-30T07:35:04;14.80;99.90
8860;DHT22;4466;50.948;4.832;2023-08-30T07:37:30;14.80;99.90
8860;DHT22;4466;50.948;4.832;2023-08-30T07:39:56;14.80;99.90
8860;DHT22;4466;50.948;4.832;2023-08-30T07:42:22;14.80;99.90
8860;DHT22;4466;50.948;4.832;2023-08-30T07:44:47;14.80;99.90
8860;DHT22;4466;50.948;4.832;2023-08-30T07:47:13;14.80;99.90
8860;DHT22;4466;50.948;4.832;2023-08-30T07:49:38;14.80;99.90
8860;DHT22;4466;50.948;4.832;2023-08-30T07:52:04;14.90;99.90
8860;DHT22;4466;50.948;4.832;2023-08-30T07:54:31;14.90;99.90
8860;DHT22;4466;50.948;4.832;2023-08-30T07:56:56;14.90;99.90
8860;DHT22;4466;50.948;4.832;2023-08-30T07:59:22;15.00;99.90
8860;DHT22;4466;50.948;4.832;2023-08-30T08:01:47;15.00;99.90
8860;DHT22;4466;50.948;4.832;2023-08-30T08:04:13;15.00;99.90
8860;DHT22;4466;50.948;4.832;2023-08-30T08:06:39;14.90;99.90
8860;DHT22;4466;50.948;4.832;2023-08-30T08:09:05;14.90;99.90
8860;DHT22;4466;50.948;4.832;2023-08-30T08:11:31;14.90;99.90
8860;DHT22;4466;50.948;4.832;2023-08-30T08:13:57;14.90;99.90
8860;DHT22;4466;50.948;4.832;2023-08-30T08:16:23;14.90;99.90
8860;DHT22;4466;50.948;4.832;2023-08-30T08:18:48;14.90;99.90
8860;DHT22;4466;50.948;4.832;2023-08-30T08:21:14;15.00;99.90
8860;DHT22;4466;50.948;4.832;2023-08-30T08:23:40;15.00;99.90
8860;DHT22;4466;50.948;4.832;2023-08-30T08:26:05;15.10;99.90
8860;DHT22;4466;50.948;4.832;2023-08-30T08:28:33;15.20;99.90
8860;DHT22;4466;50.948;4.832;2023-08-30T08:30:59;15.30;99.90
8860;DHT22;4466;50.948;4.832;2023-08-30T08:33:24;15.30;99.90
8860;DHT22;4466;50.948;4.832;2023-08-30T08:35:50;15.30;99.90
8860;DHT22;4466;50.948;4.832;2023-08-30T08:38:16;15.30;99.90
8860;DHT22;4466;50.948;4.832;2023-08-30T08:40:42;15.30;99.90
8860;DHT22;4466;50.948;4.832;2023-08-30T08:43:10;15.30;99.90
8860;DHT22;4466;50.948;4.832;2023-08-30T08:45:36;15.40;99.90
8860;DHT22;4466;50.948;4.832;2023-08-30T08:48:05;15.40;99.90
8860;DHT22;4466;50.948;4.832;2023-08-30T08:50:34;15.50;99.90
8860;DHT22;4466;50.948;4.832;2023-08-30T08:53:03;15.60;99.90
8860;DHT22;4466;50.948;4.832;2023-08-30T08:55:29;15.70;99.90
8860;DHT22;4466;50.948;4.832;2023-08-30T08:57:57;15.80;99.90
8860;DHT22;4466;50.948;4.832;2023-08-30T09:00:24;15.90;99.90
8860;DHT22;4466;50.948;4.832;2023-08-30T09:02:51;15.90;99.90
8860;DHT22;4466;50.948;4.832;2023-08-30T09:05:18;15.90;99.90
8860;DHT22;4466;50.948;4.832;2023-08-30T09:07:45;16.00;99.90
8860;DHT22;4466;50.948;4.832;2023-08-30T09:10:11;16.10;99.90
8860;DHT22;4466;50.948;4.832;2023-08-30T09:12:36;16.10;99.90
8860;DHT22;4466;50.948;4.832;2023-08-30T09:15:02;16.10;99.90
8860;DHT22;4466;50.948;4.832;2023-08-30T09:17:39;16.20;99.90
8860;DHT22;4466;50.948;4.832;2023-08-30T09:20:09;16.30;99.90
8860;DHT22;4466;50.948;4.832;2023-08-30T09:22:39;16.40;99.90
8860;DHT22;4466;50.948;4.832;2023-08-30T09:25:07;16.50;99.90
8860;DHT22;4466;50.948;4.832;2023-08-30T09:27:34;16.50;99.90
8860;DHT22;4466;50.948;4.832;2023-08-30T09:30:01;16.50;99.90
8860;DHT22;4466;50.948;4.832;2023-08-30T09:32:28;16.50;99.90
8860;DHT22;4466;50.948;4.832;2023-08-30T09:34:53;16.60;99.90
8860;DHT22;4466;50.948;4.832;2023-08-30T09:37:23;16.70;99.90
8860;DHT22;4466;50.948;4.832;2023-08-30T09:39:49;16.90;99.90
8860;DHT22;4466;50.948;4.832;2023-08-30T09:42:16;16.90;99.90
8860;DHT22;4466;50.948;4.832;2023-08-30T09:44:43;16.90;99.90
8860;DHT22;4466;50.948;4.832;2023-08-30T09:47:09;16.90;99.90
8860;DHT22;4466;50.948;4.832;2023-08-30T09:49:45;17.00;99.90
8860;DHT22;4466;50.948;4.832;2023-08-30T09:52:13;17.10;99.90
8860;DHT22;4466;50.948;4.832;2023-08-30T09:54:41;17.30;99.90
8860;DHT22;4466;50.948;4.832;2023-08-30T09:57:12;17.30;99.90
8860;DHT22;4466;50.948;4.832;2023-08-30T09:59:39;17.30;99.90
8860;DHT22;4466;50.948;4.832;2023-08-30T10:02:05;17.30;99.90
8860;DHT22;4466;50.948;4.832;2023-08-30T10:04:32;17.20;99.90
8860;DHT22;4466;50.948;4.832;2023-08-30T10:06:58;17.30;99.90
8860;DHT22;4466;50.948;4.832;2023-08-30T10:09:25;17.30;99.90
8860;DHT22;4466;50.948;4.832;2023-08-30T10:11:51;17.30;99.90
8860;DHT22;4466;50.948;4.832;2023-08-30T10:14:17;17.30;99.90
8860;DHT22;4466;50.948;4.832;2023-08-30T10:16:45;17.20;99.90
8860;DHT22;4466;50.948;4.832;2023-08-30T10:19:26;17.20;99.90
8860;DHT22;4466;50.948;4.832;2023-08-30T10:22:02;17.10;99.90
8860;DHT22;4466;50.948;4.832;2023-08-30T10:24:35;17.00;99.90
8860;DHT22;4466;50.948;4.832;2023-08-30T10:27:04;17.00;99.90
8860;DHT22;4466;50.948;4.832;2023-08-30T10:29:35;16.90;99.90
8860;DHT22;4466;50.948;4.832;2023-08-30T10:32:05;17.00;99.90
8860;DHT22;4466;50.948;4.832;2023-08-30T10:34:32;17.00;99.90
8860;DHT22;4466;50.948;4.832;2023-08-30T10:37:00;17.10;99.90
8860;DHT22;4466;50.948;4.832;2023-08-30T10:39:36;17.30;99.90
8860;DHT22;4466;50.948;4.832;2023-08-30T10:42:13;17.40;99.90
8860;DHT22;4466;50.948;4.832;2023-08-30T10:44:52;17.40;99.90
8860;DHT22;4466;50.948;4.832;2023-08-30T10:47:25;17.50;99.90
8860;DHT22;4466;50.948;4.832;2023-08-30T10:49:54;17.60;99.90
8860;DHT22;4466;50.948;4.832;2023-08-30T10:52:21;17.80;99.90
8860;DHT22;4466;50.948;4.832;2023-08-30T10:54:47;17.80;99.90
8860;DHT22;4466;50.948;4.832;2023-08-30T10:57:24;17.90;99.90
8860;DHT22;4466;50.948;4.832;2023-08-30T11:02:32;18.10;99.90
8860;DHT22;4466;50.948;4.832;2023-08-30T11:04:59;18.20;99.90
8860;DHT22;4466;50.948;4.832;2023-08-30T11:07:25;18.20;99.90
8860;DHT22;4466;50.948;4.832;2023-08-30T11:09:54;18.30;99.90
8860;DHT22;4466;50.948;4.832;2023-08-30T11:12:20;18.60;99.90
8860;DHT22;4466;50.948;4.832;2023-08-30T11:14:53;18.80;99.90
8860;DHT22;4466;50.948;4.832;2023-08-30T11:17:19;18.80;99.90
8860;DHT22;4466;50.948;4.832;2023-08-30T11:19:45;18.90;99.90
8860;DHT22;4466;50.948;4.832;2023-08-30T11:22:14;18.90;99.90
8860;DHT22;4466;50.948;4.832;2023-08-30T11:24:42;18.90;99.90
8860;DHT22;4466;50.948;4.832;2023-08-30T11:27:09;18.80;99.90
8860;DHT22;4466;50.948;4.832;2023-08-30T11:29:35;18.50;99.90
8860;DHT22;4466;50.948;4.832;2023-08-30T11:32:01;18.50;99.90
8860;DHT22;4466;50.948;4.832;2023-08-30T11:34:26;18.40;99.90
8860;DHT22;4466;50.948;4.832;2023-08-30T11:36:52;18.40;99.90
8860;DHT22;4466;50.948;4.832;2023-08-30T11:39:19;18.40;99.90
8860;DHT22;4466;50.948;4.832;2023-08-30T11:41:46;18.40;99.90
8860;DHT22;4466;50.948;4.832;2023-08-30T11:44:12;18.50;99.90
8860;DHT22;4466;50.948;4.832;2023-08-30T11:46:38;18.60;99.90
8860;DHT22;4466;50.948;4.832;2023-08-30T11:49:04;18.80;99.90
8860;DHT22;4466;50.948;4.832;2023-08-30T11:51:30;18.90;99.90
8860;DHT22;4466;50.948;4.832;2023-08-30T11:53:56;19.00;99.90
8860;DHT22;4466;50.948;4.832;2023-08-30T11:56:22;18.90;99.90
8860;DHT22;4466;50.948;4.832;2023-08-30T11:58:49;19.20;99.90
8860;DHT22;4466;50.948;4.832;2023-08-30T12:01:14;19.30;99.90
8860;DHT22;4466;50.948;4.832;2023-08-30T12:03:40;19.40;99.90
8860;DHT22;4466;50.948;4.832;2023-08-30T12:06:10;19.30;99.90
8860;DHT22;4466;50.948;4.832;2023-08-30T12:08:37;19.20;99.90
8860;DHT22;4466;50.948;4.832;2023-08-30T12:11:03;18.90;99.90
8860;DHT22;4466;50.948;4.832;2023-08-30T12:13:31;18.60;99.90
8860;DHT22;4466;50.948;4.832;2023-08-30T12:15:59;18.40;99.90
8860;DHT22;4466;50.948;4.832;2023-08-30T12:18:31;18.30;99.90
8860;DHT22;4466;50.948;4.832;2023-08-30T12:21:02;18.10;99.90
8860;DHT22;4466;50.948;4.832;2023-08-30T12:23:32;18.20;99.90
8860;DHT22;4466;50.948;4.832;2023-08-30T12:26:11;18.40;99.90
8860;DHT22;4466;50.948;4.832;2023-08-30T12:28:38;18.60;99.90
8860;DHT22;4466;50.948;4.832;2023-08-30T12:31:05;18.70;99.90
8860;DHT22;4466;50.948;4.832;2023-08-30T12:33:31;18.80;99.90
8860;DHT22;4466;50.948;4.832;2023-08-30T12:35:57;19.00;99.90
8860;DHT22;4466;50.948;4.832;2023-08-30T12:38:24;19.10;99.90
8860;DHT22;4466;50.948;4.832;2023-08-30T12:40:51;19.20;99.90
8860;DHT22;4466;50.948;4.832;2023-08-30T12:43:17;19.30;99.90
8860;DHT22;4466;50.948;4.832;2023-08-30T12:45:44;19.40;99.90
8860;DHT22;4466;50.948;4.832;2023-08-30T12:48:11;19.30;99.90
8860;DHT22;4466;50.948;4.832;2023-08-30T12:50:38;19.20;99.90
8860;DHT22;4466;50.948;4.832;2023-08-30T12:53:05;19.10;99.90
8860;DHT22;4466;50.948;4.832;2023-08-30T12:55:31;19.20;99.90
8860;DHT22;4466;50.948;4.832;2023-08-30T12:57:57;19.40;99.90
8860;DHT22;4466;50.948;4.832;2023-08-30T13:00:24;19.60;99.90
8860;DHT22;4466;50.948;4.832;2023-08-30T13:02:49;19.70;99.90
8860;DHT22;4466;50.948;4.832;2023-08-30T13:05:16;19.60;99.90
8860;DHT22;4466;50.948;4.832;2023-08-30T13:07:41;19.40;99.90
8860;DHT22;4466;50.948;4.832;2023-08-30T13:10:08;19.60;99.90
8860;DHT22;4466;50.948;4.832;2023-08-30T13:12:34;19.70;99.90
8860;DHT22;4466;50.948;4.832;2023-08-30T13:15:00;19.70;99.90
8860;DHT22;4466;50.948;4.832;2023-08-30T13:17:26;19.70;99.90
8860;DHT22;4466;50.948;4.832;2023-08-30T13:19:52;19.70;99.90
8860;DHT22;4466;50.948;4.832;2023-08-30T13:22:17;19.60;99.90
8860;DHT22;4466;50.948;4.832;2023-08-30T13:24:44;19.60;99.90
8860;DHT22;4466;50.948;4.832;2023-08-30T13:27:10;19.60;99.90
8860;DHT22;4466;50.948;4.832;2023-08-30T13:29:36;19.60;99.90
8860;DHT22;4466;50.948;4.832;2023-08-30T13:32:02;19.50;99.90
8860;DHT22;4466;50.948;4.832;2023-08-30T13:34:28;19.40;99.90
8860;DHT22;4466;50.948;4.832;2023-08-30T13:36:54;19.30;99.90
8860;DHT22;4466;50.948;4.832;2023-08-30T13:39:19;19.30;99.90
8860;DHT22;4466;50.948;4.832;2023-08-30T13:41:49;19.30;99.90
8860;DHT22;4466;50.948;4.832;2023-08-30T13:44:15;19.30;99.90
8860;DHT22;4466;50.948;4.832;2023-08-30T13:46:41;19.30;99.90
8860;DHT22;4466;50.948;4.832;2023-08-30T13:49:08;19.30;99.90
8860;DHT22;4466;50.948;4.832;2023-08-30T13:51:33;19.30;99.90
8860;DHT22;4466;50.948;4.832;2023-08-30T13:53:59;19.40;99.90
8860;DHT22;4466;50.948;4.832;2023-08-30T13:56:25;19.40;99.90
8860;DHT22;4466;50.948;4.832;2023-08-30T13:58:50;19.40;99.90
8860;DHT22;4466;50.948;4.832;2023-08-30T14:01:16;19.30;99.90
8860;DHT22;4466;50.948;4.832;2023-08-30T14:03:42;19.40;99.90
8860;DHT22;4466;50.948;4.832;2023-08-30T14:06:08;19.70;99.90
8860;DHT22;4466;50.948;4.832;2023-08-30T14:08:34;20.00;99.90
8860;DHT22;4466;50.948;4.832;2023-08-30T14:11:00;20.40;99.90
8860;DHT22;4466;50.948;4.832;2023-08-30T14:13:25;20.60;99.90
8860;DHT22;4466;50.948;4.832;2023-08-30T14:15:53;20.90;99.90
8860;DHT22;4466;50.948;4.832;2023-08-30T14:18:19;20.90;99.90
8860;DHT22;4466;50.948;4.832;2023-08-30T14:20:44;20.70;99.90
8860;DHT22;4466;50.948;4.832;2023-08-30T14:23:10;20.60;99.90
8860;DHT22;4466;50.948;4.832;2023-08-30T14:25:36;20.30;99.90
8860;DHT22;4466;50.948;4.832;2023-08-30T14:28:02;20.10;99.90
8860;DHT22;4466;50.948;4.832;2023-08-30T14:30:29;20.10;99.90
8860;DHT22;4466;50.948;4.832;2023-08-30T14:32:55;20.30;99.90
8860;DHT22;4466;50.948;4.832;2023-08-30T14:35:20;20.60;99.90
8860;DHT22;4466;50.948;4.832;2023-08-30T14:37:47;20.70;99.90
8860;DHT22;4466;50.948;4.832;2023-08-30T14:40:13;20.70;99.90
8860;DHT22;4466;50.948;4.832;2023-08-30T14:42:39;20.70;99.90
8860;DHT22;4466;50.948;4.832;2023-08-30T14:45:06;20.80;99.90
8860;DHT22;4466;50.948;4.832;2023-08-30T14:47:37;20.50;99.90
8860;DHT22;4466;50.948;4.832;2023-08-30T14:50:03;20.20;99.90
8860;DHT22;4466;50.948;4.832;2023-08-30T14:52:29;20.30;99.90
8860;DHT22;4466;50.948;4.832;2023-08-30T14:54:55;20.50;99.90
8860;DHT22;4466;50.948;4.832;2023-08-30T14:57:21;20.60;99.90
8860;DHT22;4466;50.948;4.832;2023-08-30T14:59:47;20.70;99.90
8860;DHT22;4466;50.948;4.832;2023-08-30T15:02:13;20.60;99.90
8860;DHT22;4466;50.948;4.832;2023-08-30T15:04:40;20.80;99.90
8860;DHT22;4466;50.948;4.832;2023-08-30T15:07:06;20.60;99.90
8860;DHT22;4466;50.948;4.832;2023-08-30T15:09:31;20.50;99.90
8860;DHT22;4466;50.948;4.832;2023-08-30T15:11:57;20.50;99.90
8860;DHT22;4466;50.948;4.832;2023-08-30T15:14:24;20.30;99.90
8860;DHT22;4466;50.948;4.832;2023-08-30T15:16:50;20.20;99.90
8860;DHT22;4466;50.948;4.832;2023-08-30T15:19:15;20.00;99.90
8860;DHT22;4466;50.948;4.832;2023-08-30T15:21:41;20.00;99.90
8860;DHT22;4466;50.948;4.832;2023-08-30T15:24:08;20.00;99.90
8860;DHT22;4466;50.948;4.832;2023-08-30T15:26:34;19.90;99.90
8860;DHT22;4466;50.948;4.832;2023-08-30T15:28:59;19.70;99.90
8860;DHT22;4466;50.948;4.832;2023-08-30T15:31:25;19.50;99.90
8860;DHT22;4466;50.948;4.832;2023-08-30T15:33:51;19.40;99.90
8860;DHT22;4466;50.948;4.832;2023-08-30T15:36:17;19.40;99.90
8860;DHT22;4466;50.948;4.832;2023-08-30T15:38:42;19.30;99.90
8860;DHT22;4466;50.948;4.832;2023-08-30T15:41:11;19.30;99.90
8860;DHT22;4466;50.948;4.832;2023-08-30T15:43:41;19.30;99.90
8860;DHT22;4466;50.948;4.832;2023-08-30T15:46:10;19.30;99.90
8860;DHT22;4466;50.948;4.832;2023-08-30T15:48:37;19.80;99.90
8860;DHT22;4466;50.948;4.832;2023-08-30T15:51:03;20.70;99.90
8860;DHT22;4466;50.948;4.832;2023-08-30T15:53:29;20.80;99.90
8860;DHT22;4466;50.948;4.832;2023-08-30T15:55:55;20.70;99.90
8860;DHT22;4466;50.948;4.832;2023-08-30T15:58:20;20.40;99.90
8860;DHT22;4466;50.948;4.832;2023-08-30T16:00:47;20.60;99.90
8860;DHT22;4466;50.948;4.832;2023-08-30T16:03:14;20.40;99.90
8860;DHT22;4466;50.948;4.832;2023-08-30T16:05:43;20.00;99.90
8860;DHT22;4466;50.948;4.832;2023-08-30T16:08:10;19.50;99.90